createdAt,value
2018-01-30T00:00:35.843Z,0.00
2018-01-30T00:01:35.832Z,0.00
2018-01-30T00:02:35.823Z,0.00
2018-01-30T00:03:35.814Z,0.00
2018-01-30T00:04:35.804Z,0.00
2018-01-30T00:05:35.794Z,0.00
2018-01-30T00:06:35.787Z,0.00
2018-01-30T00:07:35.777Z,0.00
2018-01-30T00:08:35.772Z,0.00
2018-01-30T00:09:35.762Z,0.00
2018-01-30T00:10:35.754Z,0.00
2018-01-30T00:11:35.746Z,0.00
2018-01-30T00:12:35.736Z,0.00
2018-01-30T00:13:35.726Z,0.00
2018-01-30T00:14:35.718Z,0.00
2018-01-30T00:15:35.709Z,0.00
2018-01-30T00:16:35.696Z,0.00
2018-01-30T00:17:35.686Z,0.00
2018-01-30T00:18:35.677Z,0.00
2018-01-30T00:19:35.667Z,0.00
2018-01-30T00:20:35.659Z,0.00
2018-01-30T00:21:35.649Z,0.00
2018-01-30T00:22:35.640Z,0.00
2018-01-30T00:23:35.631Z,0.00
2018-01-30T00:24:35.626Z,0.00
2018-01-30T00:25:35.617Z,0.00
2018-01-30T00:26:35.608Z,0.00
2018-01-30T00:27:35.599Z,0.00
2018-01-30T00:28:35.589Z,0.00
2018-01-30T00:29:35.580Z,0.00
2018-01-30T00:30:35.571Z,0.00
2018-01-30T00:31:35.562Z,0.00
2018-01-30T00:32:35.552Z,0.00
2018-01-30T00:33:35.538Z,0.00
2018-01-30T00:34:35.530Z,0.00
2018-01-30T00:35:35.520Z,0.00
2018-01-30T00:36:35.511Z,0.00
2018-01-30T00:37:35.501Z,0.00
2018-01-30T00:38:35.493Z,0.00
2018-01-30T00:39:35.484Z,0.00
2018-01-30T00:40:35.478Z,0.00
2018-01-30T00:41:35.519Z,0.00
2018-01-30T00:42:35.458Z,0.00
2018-01-30T00:43:35.451Z,0.00
2018-01-30T00:44:35.436Z,0.00
2018-01-30T00:45:35.426Z,0.00
2018-01-30T00:46:35.417Z,0.00
2018-01-30T00:47:35.409Z,0.00
2018-01-30T00:48:35.404Z,0.00
2018-01-30T00:49:35.395Z,0.00
2018-01-30T00:50:35.385Z,0.00
2018-01-30T00:51:35.376Z,0.00
2018-01-30T00:52:35.367Z,0.00
2018-01-30T00:53:35.356Z,0.00
2018-01-30T00:54:35.348Z,0.00
2018-01-30T00:55:35.339Z,0.00
2018-01-30T00:56:35.325Z,0.00
2018-01-30T00:57:35.314Z,0.00
2018-01-30T00:58:35.306Z,0.00
2018-01-30T00:59:35.298Z,0.00
2018-01-30T01:00:35.287Z,0.00
2018-01-30T01:01:35.278Z,0.00
2018-01-30T01:02:35.268Z,0.00
2018-01-30T01:03:35.260Z,0.00
2018-01-30T01:04:35.254Z,0.00
2018-01-30T01:05:35.245Z,0.00
2018-01-30T01:06:35.235Z,0.00
2018-01-30T01:07:35.226Z,0.00
2018-01-30T01:08:35.217Z,0.00
2018-01-30T01:09:35.207Z,0.00
2018-01-30T01:10:35.198Z,0.00
2018-01-30T01:11:35.188Z,0.00
2018-01-30T01:12:35.174Z,0.00
2018-01-30T01:13:35.165Z,0.00
2018-01-30T01:14:35.155Z,0.00
2018-01-30T01:15:35.145Z,0.00
2018-01-30T01:16:35.137Z,0.00
2018-01-30T01:17:35.129Z,0.00
2018-01-30T01:18:35.118Z,0.00
2018-01-30T01:19:35.107Z,0.00
2018-01-30T01:20:35.104Z,0.00
2018-01-30T01:21:35.092Z,0.00
2018-01-30T01:22:35.083Z,0.00
2018-01-30T01:23:35.075Z,0.00
2018-01-30T01:24:35.066Z,0.00
2018-01-30T01:25:35.055Z,0.00
2018-01-30T01:26:35.045Z,0.00
2018-01-30T01:27:35.036Z,0.00
2018-01-30T01:28:35.023Z,0.00
2018-01-30T01:29:35.012Z,0.00
2018-01-30T01:30:35.003Z,0.00
2018-01-30T01:31:34.994Z,0.00
2018-01-30T01:32:34.984Z,0.00
2018-01-30T01:33:34.974Z,0.00
2018-01-30T01:34:34.965Z,0.00
2018-01-30T01:35:34.956Z,0.00
2018-01-30T01:36:34.950Z,0.00
2018-01-30T01:37:34.941Z,0.00
2018-01-30T01:38:34.929Z,0.00
2018-01-30T01:39:34.920Z,0.00
2018-01-30T01:40:34.912Z,0.00
2018-01-30T01:41:34.901Z,0.00
2018-01-30T01:42:34.892Z,0.00
2018-01-30T01:43:34.882Z,0.00
2018-01-30T01:44:34.869Z,0.00
2018-01-30T01:45:34.858Z,0.00
2018-01-30T01:46:34.848Z,0.00
2018-01-30T01:47:34.839Z,0.00
2018-01-30T01:48:34.830Z,0.00
2018-01-30T01:49:34.819Z,0.00
2018-01-30T01:50:34.810Z,0.00
2018-01-30T01:51:34.800Z,0.00
2018-01-30T01:52:34.795Z,0.00
2018-01-30T01:53:34.784Z,0.00
2018-01-30T01:54:34.775Z,0.00
2018-01-30T01:55:34.765Z,0.00
2018-01-30T01:56:34.756Z,0.00
2018-01-30T01:57:34.751Z,0.00
2018-01-30T01:58:34.736Z,0.00
2018-01-30T01:59:34.733Z,0.00
2018-01-30T02:00:34.712Z,0.00
2018-01-30T02:01:34.702Z,0.00
2018-01-30T02:02:34.693Z,0.00
2018-01-30T02:03:34.683Z,0.00
2018-01-30T02:04:34.674Z,0.00
2018-01-30T02:05:34.663Z,0.00
2018-01-30T02:06:34.654Z,0.00
2018-01-30T02:07:34.643Z,0.00
2018-01-30T02:08:34.639Z,0.00
2018-01-30T02:09:34.628Z,0.00
2018-01-30T02:10:34.619Z,0.00
2018-01-30T02:11:34.609Z,0.00
2018-01-30T02:12:34.600Z,0.00
2018-01-30T02:13:34.632Z,0.00
2018-01-30T02:14:34.579Z,0.00
2018-01-30T02:15:34.569Z,0.00
2018-01-30T02:16:34.556Z,0.00
2018-01-30T02:17:34.544Z,0.00
2018-01-30T02:18:34.535Z,0.00
2018-01-30T02:19:34.525Z,0.00
2018-01-30T02:20:34.515Z,0.00
2018-01-30T02:21:34.504Z,0.00
2018-01-30T02:22:34.495Z,0.00
2018-01-30T02:23:34.486Z,0.00
2018-01-30T02:24:34.481Z,0.00
2018-01-30T02:25:34.470Z,0.00
2018-01-30T02:26:34.461Z,0.00
2018-01-30T02:27:34.451Z,0.00
2018-01-30T02:28:34.441Z,0.00
2018-01-30T02:29:34.432Z,0.00
2018-01-30T02:30:34.427Z,0.00
2018-01-30T02:31:34.410Z,0.00
2018-01-30T02:32:34.397Z,0.00
2018-01-30T02:33:34.387Z,0.00
2018-01-30T02:34:34.377Z,0.00
2018-01-30T02:35:34.369Z,0.00
2018-01-30T02:36:34.364Z,0.00
2018-01-30T02:37:34.347Z,0.00
2018-01-30T02:38:34.339Z,0.00
2018-01-30T02:39:34.329Z,0.00
2018-01-30T02:40:34.323Z,0.00
2018-01-30T02:41:34.314Z,0.00
2018-01-30T02:42:34.302Z,0.00
2018-01-30T02:43:34.293Z,0.00
2018-01-30T02:44:34.284Z,0.00
2018-01-30T02:45:34.273Z,0.00
2018-01-30T02:46:34.262Z,0.00
2018-01-30T02:47:34.254Z,0.00
2018-01-30T02:48:34.240Z,0.00
2018-01-30T02:49:34.228Z,0.00
2018-01-30T02:50:34.219Z,0.00
2018-01-30T02:51:34.211Z,0.00
2018-01-30T02:52:34.206Z,0.00
2018-01-30T02:53:34.195Z,0.00
2018-01-30T02:54:34.185Z,0.00
2018-01-30T02:55:34.177Z,0.00
2018-01-30T02:56:34.161Z,0.00
2018-01-30T02:57:34.151Z,0.00
2018-01-30T02:58:34.141Z,0.00
2018-01-30T02:59:34.130Z,0.00
2018-01-30T03:00:34.121Z,0.00
2018-01-30T03:01:34.110Z,0.00
2018-01-30T03:02:34.102Z,0.00
2018-01-30T03:03:34.092Z,0.00
2018-01-30T03:04:34.086Z,0.00
2018-01-30T03:05:34.075Z,0.00
2018-01-30T03:06:34.065Z,0.00
2018-01-30T03:07:34.057Z,0.00
2018-01-30T03:08:34.046Z,0.00
2018-01-30T03:09:34.037Z,0.00
2018-01-30T03:10:34.027Z,0.00
2018-01-30T03:11:34.016Z,0.00
2018-01-30T03:12:34.003Z,0.00
2018-01-30T03:13:33.992Z,0.00
2018-01-30T03:14:33.982Z,0.00
2018-01-30T03:15:33.973Z,0.00
2018-01-30T03:16:33.963Z,0.00
2018-01-30T03:17:33.952Z,0.00
2018-01-30T03:18:33.943Z,0.00
2018-01-30T03:19:33.933Z,0.00
2018-01-30T03:20:33.927Z,0.00
2018-01-30T03:21:33.916Z,0.00
2018-01-30T03:22:33.905Z,0.00
2018-01-30T03:23:33.900Z,0.00
2018-01-30T03:24:33.886Z,0.00
2018-01-30T03:25:33.880Z,0.00
2018-01-30T03:26:33.867Z,0.00
2018-01-30T03:27:33.856Z,0.00
2018-01-30T03:28:33.842Z,0.00
2018-01-30T03:29:33.832Z,0.00
2018-01-30T03:30:33.822Z,0.00
2018-01-30T03:31:33.812Z,0.00
2018-01-30T03:32:33.802Z,0.00
2018-01-30T03:33:33.792Z,0.00
2018-01-30T03:34:33.781Z,0.00
2018-01-30T03:35:33.777Z,0.00
2018-01-30T03:36:33.766Z,0.00
2018-01-30T03:37:33.756Z,0.00
2018-01-30T03:38:33.745Z,0.00
2018-01-30T03:39:33.735Z,0.00
2018-01-30T03:40:33.726Z,0.00
2018-01-30T03:41:33.717Z,0.00
2018-01-30T03:42:33.705Z,0.00
2018-01-30T03:43:33.694Z,0.00
2018-01-30T03:44:33.681Z,0.00
2018-01-30T03:45:33.671Z,0.00
2018-01-30T03:46:33.659Z,0.00
2018-01-30T03:47:33.650Z,0.00
2018-01-30T03:48:33.640Z,0.00
2018-01-30T03:49:33.632Z,0.00
2018-01-30T03:50:33.619Z,0.00
2018-01-30T03:51:33.610Z,0.00
2018-01-30T03:52:33.602Z,0.00
2018-01-30T03:53:33.592Z,0.00
2018-01-30T03:54:33.585Z,0.00
2018-01-30T03:55:33.572Z,0.00
2018-01-30T03:56:33.557Z,0.00
2018-01-30T03:57:33.547Z,0.00
2018-01-30T03:58:33.538Z,0.00
2018-01-30T03:59:33.527Z,0.00
2018-01-30T04:00:33.527Z,0.00
2018-01-30T04:01:33.510Z,0.00
2018-01-30T04:02:33.503Z,0.00
2018-01-30T04:03:33.490Z,0.00
2018-01-30T04:04:33.482Z,0.00
2018-01-30T04:05:33.470Z,0.00
2018-01-30T04:06:33.461Z,0.00
2018-01-30T04:07:33.450Z,0.00
2018-01-30T04:08:33.436Z,0.00
2018-01-30T04:09:33.426Z,0.00
2018-01-30T04:10:33.419Z,0.00
2018-01-30T04:11:33.406Z,0.00
2018-01-30T04:12:33.396Z,0.00
2018-01-30T04:13:33.386Z,0.00
2018-01-30T04:14:33.378Z,0.00
2018-01-30T04:15:33.367Z,0.00
2018-01-30T04:16:33.363Z,0.00
2018-01-30T04:17:33.351Z,0.00
2018-01-30T04:18:33.341Z,0.00
2018-01-30T04:19:33.333Z,0.00
2018-01-30T04:20:33.323Z,0.00
2018-01-30T04:21:33.312Z,0.00
2018-01-30T04:22:33.305Z,0.00
2018-01-30T04:23:33.293Z,0.00
2018-01-30T04:24:33.280Z,0.00
2018-01-30T04:25:33.270Z,0.00
2018-01-30T04:26:33.261Z,0.00
2018-01-30T04:27:33.251Z,0.00
2018-01-30T04:28:33.241Z,0.00
2018-01-30T04:29:33.241Z,0.00
2018-01-30T04:30:33.223Z,0.00
2018-01-30T04:31:33.213Z,0.00
2018-01-30T04:32:33.208Z,0.00
2018-01-30T04:33:33.198Z,0.00
2018-01-30T04:34:33.188Z,0.00
2018-01-30T04:35:33.179Z,0.00
2018-01-30T04:36:33.170Z,0.00
2018-01-30T04:37:33.159Z,0.00
2018-01-30T04:38:33.151Z,0.00
2018-01-30T04:39:33.142Z,0.00
2018-01-30T04:40:33.128Z,0.00
2018-01-30T04:41:33.117Z,0.00
2018-01-30T04:42:33.109Z,0.00
2018-01-30T04:43:33.098Z,0.00
2018-01-30T04:44:33.089Z,0.00
2018-01-30T04:45:33.080Z,0.00
2018-01-30T04:46:33.071Z,0.00
2018-01-30T04:47:33.060Z,0.00
2018-01-30T04:48:33.059Z,0.00
2018-01-30T04:49:33.045Z,0.00
2018-01-30T04:50:33.040Z,0.00
2018-01-30T04:51:33.027Z,0.00
2018-01-30T04:52:33.017Z,0.00
2018-01-30T04:53:33.007Z,0.00
2018-01-30T04:54:32.997Z,0.00
2018-01-30T04:55:32.986Z,0.00
2018-01-30T04:56:32.973Z,0.00
2018-01-30T04:57:32.963Z,0.00
2018-01-30T04:58:32.953Z,0.00
2018-01-30T04:59:32.944Z,0.00
2018-01-30T05:00:32.938Z,0.00
2018-01-30T05:01:32.928Z,0.00
2018-01-30T05:02:32.971Z,0.00
2018-01-30T05:03:32.908Z,0.00
2018-01-30T05:04:32.895Z,0.00
2018-01-30T05:05:32.884Z,0.00
2018-01-30T05:06:32.874Z,0.00
2018-01-30T05:07:32.864Z,0.00
2018-01-30T05:08:32.854Z,0.00
2018-01-30T05:09:32.844Z,0.00
2018-01-30T05:10:32.834Z,0.00
2018-01-30T05:11:32.824Z,0.00
2018-01-30T05:12:32.819Z,0.00
2018-01-30T05:13:32.811Z,0.00
2018-01-30T05:14:32.798Z,0.00
2018-01-30T05:15:32.789Z,0.00
2018-01-30T05:16:32.779Z,0.00
2018-01-30T05:17:32.770Z,0.00
2018-01-30T05:18:32.761Z,0.00
2018-01-30T05:19:32.749Z,0.00
2018-01-30T05:20:32.735Z,0.00
2018-01-30T05:21:32.724Z,0.00
2018-01-30T05:22:32.714Z,0.00
2018-01-30T05:23:32.705Z,0.00
2018-01-30T05:24:32.695Z,0.00
2018-01-30T05:25:32.684Z,0.00
2018-01-30T05:26:32.675Z,0.00
2018-01-30T05:27:32.664Z,0.00
2018-01-30T05:28:32.659Z,0.00
2018-01-30T05:29:32.648Z,0.00
2018-01-30T05:30:32.639Z,0.00
2018-01-30T05:31:32.630Z,0.00
2018-01-30T05:32:32.623Z,0.00
2018-01-30T05:33:32.609Z,0.00
2018-01-30T05:34:32.600Z,0.00
2018-01-30T05:35:32.591Z,0.00
2018-01-30T05:36:32.576Z,0.00
2018-01-30T05:37:32.567Z,0.00
2018-01-30T05:38:32.557Z,0.00
2018-01-30T05:39:32.546Z,0.00
2018-01-30T05:40:32.536Z,0.00
2018-01-30T05:41:32.526Z,0.00
2018-01-30T05:42:32.516Z,0.00
2018-01-30T05:43:32.508Z,0.00
2018-01-30T05:44:32.501Z,0.00
2018-01-30T05:45:32.492Z,0.00
2018-01-30T05:46:32.482Z,0.00
2018-01-30T05:47:32.473Z,0.00
2018-01-30T05:48:32.461Z,0.00
2018-01-30T05:49:32.452Z,0.00
2018-01-30T05:50:32.455Z,0.00
2018-01-30T05:51:32.436Z,0.00
2018-01-30T05:52:32.418Z,0.00
2018-01-30T05:53:32.408Z,0.00
2018-01-30T05:54:32.401Z,0.00
2018-01-30T05:55:32.389Z,0.00
2018-01-30T05:56:32.379Z,0.00
2018-01-30T05:57:32.369Z,0.00
2018-01-30T05:58:32.359Z,0.00
2018-01-30T05:59:32.349Z,0.00
2018-01-30T06:00:32.344Z,0.00
2018-01-30T06:01:32.334Z,0.00
2018-01-30T06:02:32.323Z,0.00
2018-01-30T06:03:32.314Z,0.00
2018-01-30T06:04:32.301Z,0.00
2018-01-30T06:05:32.289Z,0.00
2018-01-30T06:06:32.280Z,0.00
2018-01-30T06:07:32.270Z,0.00
2018-01-30T06:08:32.264Z,0.00
2018-01-30T06:09:32.254Z,0.00
2018-01-30T06:10:32.245Z,0.00
2018-01-30T06:11:32.235Z,0.00
2018-01-30T06:12:32.225Z,0.00
2018-01-30T06:13:32.215Z,0.00
2018-01-30T06:14:32.205Z,0.00
2018-01-30T06:15:32.194Z,0.00
2018-01-30T06:16:32.186Z,0.00
2018-01-30T06:17:32.170Z,0.00
2018-01-30T06:18:32.160Z,0.00
2018-01-30T06:19:32.151Z,0.00
2018-01-30T06:20:32.147Z,0.00
2018-01-30T06:21:32.129Z,0.00
2018-01-30T06:22:32.120Z,0.00
2018-01-30T06:23:32.115Z,0.00
2018-01-30T06:24:32.108Z,0.00
2018-01-30T06:25:32.094Z,0.00
2018-01-30T06:26:32.083Z,0.00
2018-01-30T06:27:32.074Z,0.00
2018-01-30T06:28:32.064Z,0.00
2018-01-30T06:29:32.053Z,0.00
2018-01-30T06:30:32.044Z,0.00
2018-01-30T06:31:32.034Z,0.00
2018-01-30T06:32:32.020Z,0.00
2018-01-30T06:33:32.008Z,0.00
2018-01-30T06:34:31.999Z,0.00
2018-01-30T06:35:31.993Z,0.00
2018-01-30T06:36:31.979Z,4.00
2018-01-30T06:37:31.969Z,4.00
2018-01-30T06:38:31.960Z,0.00
2018-01-30T06:39:31.954Z,4.00
2018-01-30T06:40:31.944Z,4.00
2018-01-30T06:41:31.934Z,4.00
2018-01-30T06:42:31.923Z,4.00
2018-01-30T06:43:31.913Z,4.00
2018-01-30T06:44:31.904Z,4.00
2018-01-30T06:45:31.892Z,4.00
2018-01-30T06:46:31.883Z,4.00
2018-01-30T06:47:31.872Z,8.00
2018-01-30T06:48:31.860Z,8.00
2018-01-30T06:49:31.849Z,12.00
2018-01-30T06:50:31.839Z,12.00
2018-01-30T06:51:31.830Z,12.00
2018-01-30T06:52:31.819Z,16.00
2018-01-30T06:53:31.808Z,20.00
2018-01-30T06:54:31.799Z,24.00
2018-01-30T06:55:31.797Z,28.00
2018-01-30T06:56:31.785Z,32.00
2018-01-30T06:57:31.773Z,40.00
2018-01-30T06:58:31.763Z,40.00
2018-01-30T06:59:31.753Z,48.00
2018-01-30T07:00:31.744Z,56.00
2018-01-30T07:01:31.736Z,64.00
2018-01-30T07:02:31.725Z,72.00
2018-01-30T07:03:31.715Z,80.00
2018-01-30T07:04:31.701Z,88.00
2018-01-30T07:05:31.691Z,96.00
2018-01-30T07:06:31.679Z,108.00
2018-01-30T07:07:31.670Z,120.00
2018-01-30T07:08:31.664Z,128.00
2018-01-30T07:09:31.660Z,140.00
2018-01-30T07:10:31.644Z,148.00
2018-01-30T07:11:31.635Z,160.00
2018-01-30T07:12:31.622Z,176.00
2018-01-30T07:13:31.610Z,188.00
2018-01-30T07:14:31.601Z,196.00
2018-01-30T07:15:31.592Z,216.00
2018-01-30T07:16:31.583Z,228.00
2018-01-30T07:17:31.572Z,248.00
2018-01-30T07:18:31.563Z,268.00
2018-01-30T07:19:31.553Z,296.00
2018-01-30T07:20:31.547Z,320.00
2018-01-30T07:21:31.538Z,348.00
2018-01-30T07:22:31.528Z,388.00
2018-01-30T07:23:31.519Z,436.00
2018-01-30T07:24:31.509Z,472.00
2018-01-30T07:25:31.498Z,496.00
2018-01-30T07:26:31.489Z,524.00
2018-01-30T07:27:31.480Z,552.00
2018-01-30T07:28:31.465Z,584.00
2018-01-30T07:29:31.455Z,628.00
2018-01-30T07:30:31.446Z,668.00
2018-01-30T07:31:31.435Z,700.00
2018-01-30T07:32:31.427Z,724.00
2018-01-30T07:33:31.415Z,740.00
2018-01-30T07:34:31.406Z,756.00
2018-01-30T07:35:31.397Z,756.00
2018-01-30T07:36:31.393Z,812.00
2018-01-30T07:37:31.381Z,856.00
2018-01-30T07:38:31.373Z,900.00
2018-01-30T07:39:31.364Z,924.00
2018-01-30T07:40:31.354Z,928.00
2018-01-30T07:41:31.342Z,920.00
2018-01-30T07:42:31.333Z,928.00
2018-01-30T07:43:31.323Z,940.00
2018-01-30T07:44:31.311Z,924.00
2018-01-30T07:45:31.300Z,912.00
2018-01-30T07:46:31.290Z,924.00
2018-01-30T07:47:31.282Z,1008.00
2018-01-30T07:48:31.271Z,1040.00
2018-01-30T07:49:31.262Z,1196.00
2018-01-30T07:50:31.253Z,1400.00
2018-01-30T07:51:31.242Z,1612.00
2018-01-30T07:52:31.237Z,1676.00
2018-01-30T07:53:31.228Z,1552.00
2018-01-30T07:54:31.218Z,1608.00
2018-01-30T07:55:31.208Z,1580.00
2018-01-30T07:56:31.200Z,1368.00
2018-01-30T07:57:31.189Z,1464.00
2018-01-30T07:58:31.179Z,1740.00
2018-01-30T07:59:31.170Z,1952.00
2018-01-30T08:00:31.157Z,1904.00
2018-01-30T08:01:31.148Z,1616.00
2018-01-30T08:02:31.137Z,1584.00
2018-01-30T08:03:31.128Z,1604.00
2018-01-30T08:04:31.120Z,1864.00
2018-01-30T08:05:31.109Z,1832.00
2018-01-30T08:06:31.100Z,1724.00
2018-01-30T08:07:31.091Z,1672.00
2018-01-30T08:08:31.085Z,1612.00
2018-01-30T08:09:31.075Z,1740.00
2018-01-30T08:10:31.067Z,1412.00
2018-01-30T08:11:31.058Z,1212.00
2018-01-30T08:12:31.044Z,1168.00
2018-01-30T08:13:31.035Z,1128.00
2018-01-30T08:14:31.025Z,1008.00
2018-01-30T08:15:31.017Z,1224.00
2018-01-30T08:16:31.012Z,1236.00
2018-01-30T08:17:31.007Z,1076.00
2018-01-30T08:18:30.992Z,1024.00
2018-01-30T08:19:30.984Z,1096.00
2018-01-30T08:20:30.978Z,1160.00
2018-01-30T08:21:30.964Z,1408.00
2018-01-30T08:22:30.956Z,1476.00
2018-01-30T08:23:30.946Z,1248.00
2018-01-30T08:24:30.933Z,1352.00
2018-01-30T08:25:30.923Z,1348.00
2018-01-30T08:26:30.916Z,1292.00
2018-01-30T08:27:30.906Z,1480.00
2018-01-30T08:28:30.897Z,1304.00
2018-01-30T08:29:30.887Z,1352.00
2018-01-30T08:30:30.879Z,1784.00
2018-01-30T08:31:30.870Z,2060.00
2018-01-30T08:32:30.865Z,2308.00
2018-01-30T08:33:30.856Z,2244.00
2018-01-30T08:34:30.847Z,1892.00
2018-01-30T08:35:30.838Z,2040.00
2018-01-30T08:36:30.831Z,2012.00
2018-01-30T08:37:30.818Z,2332.00
2018-01-30T08:38:30.810Z,2500.00
2018-01-30T08:39:30.802Z,2340.00
2018-01-30T08:40:30.789Z,2820.00
2018-01-30T08:41:30.779Z,2668.00
2018-01-30T08:42:30.771Z,3408.00
2018-01-30T08:43:30.762Z,4296.00
2018-01-30T08:44:30.753Z,4040.00
2018-01-30T08:45:30.744Z,3900.00
2018-01-30T08:46:30.737Z,4440.00
2018-01-30T08:47:30.727Z,4404.00
2018-01-30T08:48:30.723Z,4264.00
2018-01-30T08:49:30.713Z,4392.00
2018-01-30T08:50:30.705Z,4456.00
2018-01-30T08:51:30.696Z,3984.00
2018-01-30T08:52:30.687Z,3808.00
2018-01-30T08:53:30.677Z,3180.00
2018-01-30T08:54:30.671Z,2676.00
2018-01-30T08:55:30.662Z,2760.00
2018-01-30T08:56:30.650Z,4536.00
2018-01-30T08:57:30.642Z,7256.00
2018-01-30T08:58:30.632Z,6256.00
2018-01-30T08:59:30.624Z,5828.00
2018-01-30T09:00:30.618Z,4372.00
2018-01-30T09:01:30.607Z,4008.00
2018-01-30T09:02:30.601Z,3236.00
2018-01-30T09:03:30.632Z,2800.00
2018-01-30T09:04:30.589Z,3380.00
2018-01-30T09:05:30.584Z,3984.00
2018-01-30T09:06:30.573Z,4608.00
2018-01-30T09:07:30.566Z,6296.00
2018-01-30T09:08:30.557Z,7420.00
2018-01-30T09:09:30.550Z,6524.00
2018-01-30T09:10:30.543Z,4896.00
2018-01-30T09:11:30.535Z,3268.00
2018-01-30T09:12:30.523Z,3460.00
2018-01-30T09:13:30.516Z,4112.00
2018-01-30T09:14:30.508Z,5112.00
2018-01-30T09:15:30.501Z,6152.00
2018-01-30T09:16:30.498Z,6660.00
2018-01-30T09:17:30.489Z,5516.00
2018-01-30T09:18:30.483Z,4944.00
2018-01-30T09:19:30.475Z,4832.00
2018-01-30T09:20:30.464Z,5044.00
2018-01-30T09:21:30.457Z,5136.00
2018-01-30T09:22:30.451Z,4564.00
2018-01-30T09:23:30.444Z,5072.00
2018-01-30T09:24:30.436Z,5404.00
2018-01-30T09:25:30.428Z,5072.00
2018-01-30T09:26:30.422Z,4760.00
2018-01-30T09:27:30.415Z,5168.00
2018-01-30T09:28:30.415Z,5756.00
2018-01-30T09:29:30.404Z,5168.00
2018-01-30T09:30:30.400Z,4348.00
2018-01-30T09:31:30.391Z,3112.00
2018-01-30T09:32:30.386Z,2856.00
2018-01-30T09:33:30.378Z,3032.00
2018-01-30T09:34:30.372Z,2928.00
2018-01-30T09:35:30.366Z,3264.00
2018-01-30T09:36:30.354Z,3560.00
2018-01-30T09:37:30.347Z,4120.00
2018-01-30T09:38:30.342Z,4140.00
2018-01-30T09:39:30.335Z,3640.00
2018-01-30T09:40:30.329Z,3772.00
2018-01-30T09:41:30.320Z,3936.00
2018-01-30T09:42:30.313Z,3796.00
2018-01-30T09:43:30.306Z,3660.00
2018-01-30T09:44:30.305Z,3348.00
2018-01-30T09:45:30.297Z,3136.00
2018-01-30T09:46:30.290Z,2960.00
2018-01-30T09:47:30.285Z,3216.00
2018-01-30T09:48:30.278Z,4032.00
2018-01-30T09:49:30.269Z,3072.00
2018-01-30T09:50:30.263Z,2548.00
2018-01-30T09:51:30.255Z,3052.00
2018-01-30T09:52:30.245Z,3460.00
2018-01-30T09:53:30.237Z,4412.00
2018-01-30T09:54:30.236Z,3524.00
2018-01-30T09:55:30.224Z,3952.00
2018-01-30T09:56:30.217Z,4804.00
2018-01-30T09:57:30.209Z,4264.00
2018-01-30T09:58:30.201Z,4148.00
2018-01-30T09:59:30.194Z,4504.00
2018-01-30T10:00:30.193Z,4136.00
2018-01-30T10:01:30.185Z,4180.00
2018-01-30T10:02:30.178Z,4024.00
2018-01-30T10:03:30.173Z,3764.00
2018-01-30T10:04:30.164Z,4320.00
2018-01-30T10:05:30.156Z,4100.00
2018-01-30T10:06:30.150Z,3340.00
2018-01-30T10:07:30.145Z,2996.00
2018-01-30T10:08:30.131Z,2792.00
2018-01-30T10:09:30.123Z,3684.00
2018-01-30T10:10:30.117Z,2820.00
2018-01-30T10:11:30.112Z,2824.00
2018-01-30T10:12:30.105Z,3332.00
2018-01-30T10:13:30.096Z,4000.00
2018-01-30T10:14:30.089Z,5592.00
2018-01-30T10:15:30.087Z,7880.00
2018-01-30T10:16:30.080Z,5096.00
2018-01-30T10:17:30.072Z,5252.00
2018-01-30T10:18:30.067Z,5904.00
2018-01-30T10:19:30.061Z,5548.00
2018-01-30T10:20:30.054Z,4924.00
2018-01-30T10:21:30.046Z,6268.00
2018-01-30T10:22:30.040Z,6576.00
2018-01-30T10:23:30.033Z,7024.00
2018-01-30T10:24:30.023Z,7820.00
2018-01-30T10:25:30.018Z,6308.00
2018-01-30T10:26:30.015Z,7096.00
2018-01-30T10:27:30.004Z,5424.00
2018-01-30T10:28:29.999Z,5372.00
2018-01-30T10:29:29.990Z,5792.00
2018-01-30T10:30:29.984Z,7488.00
2018-01-30T10:31:29.981Z,9228.00
2018-01-30T10:32:29.997Z,6824.00
2018-01-30T10:33:29.971Z,6008.00
2018-01-30T10:34:29.964Z,6652.00
2018-01-30T10:35:29.958Z,5396.00
2018-01-30T10:36:29.953Z,7260.00
2018-01-30T10:37:29.946Z,11328.00
2018-01-30T10:38:29.940Z,8692.00
2018-01-30T10:39:29.939Z,5988.00
2018-01-30T10:40:29.924Z,7964.00
2018-01-30T10:41:29.919Z,6652.00
2018-01-30T10:42:29.913Z,4588.00
2018-01-30T10:43:29.909Z,4704.00
2018-01-30T10:44:29.904Z,4676.00
2018-01-30T10:45:29.898Z,5080.00
2018-01-30T10:46:29.896Z,4980.00
2018-01-30T10:47:29.888Z,4480.00
2018-01-30T10:48:29.887Z,5132.00
2018-01-30T10:49:29.881Z,5384.00
2018-01-30T10:50:29.876Z,5360.00
2018-01-30T10:51:29.874Z,4708.00
2018-01-30T10:52:29.865Z,5616.00
2018-01-30T10:53:29.860Z,6496.00
2018-01-30T10:54:29.855Z,5252.00
2018-01-30T10:55:29.851Z,4840.00
2018-01-30T10:56:29.841Z,5784.00
2018-01-30T10:57:29.834Z,7976.00
2018-01-30T10:58:29.829Z,5684.00
2018-01-30T10:59:29.825Z,4420.00
2018-01-30T11:00:29.820Z,3740.00
2018-01-30T11:01:29.813Z,3888.00
2018-01-30T11:02:29.811Z,4724.00
2018-01-30T11:03:29.804Z,5312.00
2018-01-30T11:04:29.803Z,5860.00
2018-01-30T11:05:29.802Z,4700.00
2018-01-30T11:06:29.793Z,3720.00
2018-01-30T11:07:29.788Z,5616.00
2018-01-30T11:08:29.782Z,7160.00
2018-01-30T11:09:29.777Z,8508.00
2018-01-30T11:10:29.771Z,9456.00
2018-01-30T11:11:29.766Z,8592.00
2018-01-30T11:12:29.756Z,7968.00
2018-01-30T11:13:29.750Z,8264.00
2018-01-30T11:14:29.747Z,9124.00
2018-01-30T11:15:29.742Z,8520.00
2018-01-30T11:16:29.738Z,7512.00
2018-01-30T11:17:29.731Z,7716.00
2018-01-30T11:18:29.742Z,8016.00
2018-01-30T11:19:29.723Z,7136.00
2018-01-30T11:20:29.721Z,8748.00
2018-01-30T11:21:29.716Z,7456.00
2018-01-30T11:22:29.712Z,6460.00
2018-01-30T11:23:29.708Z,6168.00
2018-01-30T11:24:29.701Z,5596.00
2018-01-30T11:25:29.694Z,6360.00
2018-01-30T11:26:29.690Z,6040.00
2018-01-30T11:27:29.686Z,4780.00
2018-01-30T11:28:29.687Z,5068.00
2018-01-30T11:29:29.680Z,7304.00
2018-01-30T11:30:29.677Z,7720.00
2018-01-30T11:31:29.672Z,6964.00
2018-01-30T11:32:29.672Z,7592.00
2018-01-30T11:33:29.664Z,7160.00
2018-01-30T11:34:29.660Z,6880.00
2018-01-30T11:35:29.654Z,7124.00
2018-01-30T11:36:29.648Z,7432.00
2018-01-30T11:37:29.642Z,7108.00
2018-01-30T11:38:29.638Z,6764.00
2018-01-30T11:39:29.635Z,6728.00
2018-01-30T11:40:29.630Z,7488.00
2018-01-30T11:41:29.626Z,6888.00
2018-01-30T11:42:29.622Z,7492.00
2018-01-30T11:43:29.618Z,7200.00
2018-01-30T11:44:29.618Z,6608.00
2018-01-30T11:45:29.613Z,6724.00
2018-01-30T11:46:29.609Z,6588.00
2018-01-30T11:47:29.604Z,7908.00
2018-01-30T11:48:29.600Z,7152.00
2018-01-30T11:49:29.597Z,6480.00
2018-01-30T11:50:29.595Z,5124.00
2018-01-30T11:51:29.590Z,5672.00
2018-01-30T11:52:29.580Z,6068.00
2018-01-30T11:53:29.577Z,5380.00
2018-01-30T11:54:29.573Z,6304.00
2018-01-30T11:55:29.607Z,8352.00
2018-01-30T11:56:29.565Z,6144.00
2018-01-30T11:57:29.561Z,4836.00
2018-01-30T11:58:29.556Z,5216.00
2018-01-30T11:59:29.555Z,4672.00
2018-01-30T12:00:29.551Z,4680.00
2018-01-30T12:01:29.547Z,4416.00
2018-01-30T12:02:29.543Z,4508.00
2018-01-30T12:03:29.540Z,5192.00
2018-01-30T12:04:29.535Z,4984.00
2018-01-30T12:05:29.531Z,5372.00
2018-01-30T12:06:29.526Z,6100.00
2018-01-30T12:07:29.523Z,6020.00
2018-01-30T12:08:29.518Z,5408.00
2018-01-30T12:09:29.508Z,4980.00
2018-01-30T12:10:29.526Z,5512.00
2018-01-30T12:11:29.500Z,5020.00
2018-01-30T12:12:29.496Z,6232.00
2018-01-30T12:13:29.490Z,7200.00
2018-01-30T12:14:29.487Z,6496.00
2018-01-30T12:15:29.482Z,7224.00
2018-01-30T12:16:29.482Z,7252.00
2018-01-30T12:17:29.476Z,7316.00
2018-01-30T12:18:29.472Z,7044.00
2018-01-30T12:19:29.467Z,7600.00
2018-01-30T12:20:29.464Z,8848.00
2018-01-30T12:21:29.458Z,8776.00
2018-01-30T12:22:29.454Z,7632.00
2018-01-30T12:23:29.450Z,7772.00
2018-01-30T12:24:29.442Z,7716.00
2018-01-30T12:25:29.438Z,8004.00
2018-01-30T12:26:29.439Z,7124.00
2018-01-30T12:27:29.428Z,8168.00
2018-01-30T12:28:29.429Z,8188.00
2018-01-30T12:29:29.636Z,8896.00
2018-01-30T12:30:29.437Z,8504.00
2018-01-30T12:31:29.441Z,7504.00
2018-01-30T12:32:29.421Z,8172.00
2018-01-30T12:33:29.402Z,8988.00
2018-01-30T12:34:29.435Z,9104.00
2018-01-30T12:35:29.397Z,8244.00
2018-01-30T12:36:29.428Z,7768.00
2018-01-30T12:37:29.600Z,7336.00
2018-01-30T12:38:29.410Z,7580.00
2018-01-30T12:39:29.397Z,7400.00
2018-01-30T12:40:29.396Z,6340.00
2018-01-30T12:41:29.396Z,6408.00
2018-01-30T12:42:29.394Z,5092.00
2018-01-30T12:43:29.375Z,5308.00
2018-01-30T12:44:29.383Z,5596.00
2018-01-30T12:45:29.371Z,5452.00